Time;durP1;ratioP1;P1;durP2;ratioP2;P2;SDS_P1;SDS_P2;PMS_P1;PMS_P2;Temp;Humidity;BMP_temperature;BMP_pressure;BME280_temperature;BME280_humidity;BME280_pressure;Samples;Min_cycle;Max_cycle;Signal;HPM_P1;HPM_P2
2023/09/15 00:02:25;;;;;;;6.27;4.07;;;16.60;99.90;;;;;;5016062;28;20195;-73
2023/09/15 00:04:51;;;;;;;4.80;4.40;;;16.60;99.90;;;;;;5015833;28;20199;-73
2023/09/15 00:07:17;;;;;;;7.43;3.80;;;16.50;99.90;;;;;;5016361;28;20905;-73
2023/09/15 00:09:43;;;;;;;4.50;4.03;;;16.60;99.90;;;;;;5014710;28;20828;-73
2023/09/15 00:12:09;;;;;;;4.30;3.90;;;16.60;99.90;;;;;;5015682;28;20472;-73
2023/09/15 00:14:34;;;;;;;4.60;4.20;;;16.60;99.90;;;;;;5016040;28;20172;-73
2023/09/15 00:17:03;;;;;;;5.57;4.40;;;16.70;99.90;;;;;;5015957;28;20446;-73
2023/09/15 00:19:28;;;;;;;4.27;3.87;;;16.50;99.90;;;;;;5014585;28;20168;-73
2023/09/15 00:21:55;;;;;;;4.07;3.60;;;16.40;99.90;;;;;;5015716;28;20410;-73
2023/09/15 00:24:21;;;;;;;3.80;3.50;;;16.40;99.90;;;;;;5015791;28;20180;-73
2023/09/15 00:26:48;;;;;;;4.63;3.60;;;16.40;99.90;;;;;;5015284;28;20411;-73
2023/09/15 00:29:14;;;;;;;4.07;3.70;;;16.50;99.90;;;;;;5015813;28;20427;-73
2023/09/15 00:31:41;;;;;;;5.00;4.10;;;16.50;99.90;;;;;;5015779;28;20489;-72
2023/09/15 00:34:06;;;;;;;5.47;4.00;;;16.50;99.90;;;;;;5015648;28;20473;-73
2023/09/15 00:36:32;;;;;;;4.60;3.73;;;16.50;99.90;;;;;;5014980;28;20467;-73
2023/09/15 00:38:58;;;;;;;4.33;3.93;;;16.50;99.90;;;;;;5016118;28;20168;-74
2023/09/15 00:41:24;;;;;;;4.20;3.40;;;16.60;99.90;;;;;;5015621;28;20195;-73
2023/09/15 00:43:49;;;;;;;4.10;3.70;;;16.60;99.90;;;;;;5015577;28;20845;-73
2023/09/15 00:46:15;;;;;;;4.13;3.73;;;16.60;99.90;;;;;;5015995;28;20253;-73
2023/09/15 00:48:41;;;;;;;6.13;4.03;;;16.60;99.90;;;;;;5015829;28;20215;-73
2023/09/15 00:51:07;;;;;;;6.23;4.63;;;16.50;99.90;;;;;;5015576;28;20406;-73
2023/09/15 00:53:35;;;;;;;5.20;4.07;;;16.50;99.90;;;;;;5014071;28;20681;-73
2023/09/15 00:56:03;;;;;;;4.90;4.40;;;16.40;99.90;;;;;;5015317;28;20453;-73
2023/09/15 00:58:31;;;;;;;6.03;4.10;;;16.30;99.90;;;;;;5015494;28;20415;-73
2023/09/15 01:00:56;;;;;;;4.77;3.90;;;16.40;99.90;;;;;;5015850;28;20417;-73
2023/09/15 01:03:24;;;;;;;6.50;4.33;;;16.40;99.90;;;;;;5015357;28;20430;-73
2023/09/15 01:05:50;;;;;;;6.10;4.47;;;16.40;99.90;;;;;;5015674;28;20546;-73
2023/09/15 01:08:16;;;;;;;4.87;3.70;;;16.30;99.90;;;;;;5016168;28;20414;-73
2023/09/15 01:10:41;;;;;;;4.33;3.93;;;16.20;99.90;;;;;;5014668;28;20414;-72
2023/09/15 01:13:07;;;;;;;4.83;3.80;;;16.30;99.90;;;;;;5014559;28;20253;-73
2023/09/15 01:15:56;;;;;;;4.87;4.10;;;16.30;99.90;;;;;;5015526;28;20179;-70
2023/09/15 01:18:24;;;;;;;3.93;3.53;;;16.30;99.90;;;;;;5015275;28;20238;-72
2023/09/15 01:21:26;;;;;;;4.23;3.60;;;16.30;99.90;;;;;;5014790;28;20407;-72
2023/09/15 01:24:29;;;;;;;4.40;4.00;;;16.30;99.90;;;;;;5014433;28;20448;-73
2023/09/15 01:27:28;;;;;;;5.27;3.63;;;16.30;99.90;;;;;;5014497;28;20417;-72
2023/09/15 01:29:55;;;;;;;3.60;3.30;;;16.20;99.90;;;;;;4998483;28;20414;-73
2023/09/15 01:32:22;;;;;;;5.13;4.50;;;16.20;99.90;;;;;;5013898;28;20793;-72
2023/09/15 01:34:52;;;;;;;4.23;3.60;;;16.20;99.90;;;;;;5013039;28;20415;-72
2023/09/15 01:37:19;;;;;;;4.17;3.77;;;16.30;99.90;;;;;;5014632;28;20859;-73
2023/09/15 01:39:45;;;;;;;3.80;3.40;;;16.30;99.90;;;;;;5014631;28;20410;-73
2023/09/15 01:42:10;;;;;;;6.47;4.70;;;16.20;99.90;;;;;;5013376;28;20481;-72
2023/09/15 01:44:36;;;;;;;5.83;4.13;;;16.10;99.90;;;;;;5014670;28;20955;-73
2023/09/15 01:47:02;;;;;;;4.10;3.47;;;16.10;99.90;;;;;;5014639;28;20190;-73
2023/09/15 01:49:29;;;;;;;5.20;4.40;;;16.10;99.90;;;;;;5014517;28;20645;-72
2023/09/15 01:51:57;;;;;;;5.50;4.27;;;16.10;99.90;;;;;;5012927;28;20207;-72
2023/09/15 01:54:23;;;;;;;4.50;3.87;;;16.10;99.90;;;;;;5014093;28;20416;-72
2023/09/15 01:56:49;;;;;;;4.53;3.90;;;16.10;99.90;;;;;;5014181;28;20449;-72
2023/09/15 01:59:15;;;;;;;4.03;3.63;;;16.10;99.90;;;;;;5013751;28;20417;-72
2023/09/15 02:01:41;;;;;;;5.13;4.27;;;16.10;99.90;;;;;;5013935;28;20204;-72
2023/09/15 02:04:07;;;;;;;4.20;3.60;;;16.10;99.90;;;;;;5013964;28;20830;-72
2023/09/15 02:06:33;;;;;;;4.80;4.40;;;16.10;99.90;;;;;;5014591;28;20440;-72
2023/09/15 02:08:58;;;;;;;4.57;4.03;;;16.00;99.90;;;;;;5014596;28;20183;-73
2023/09/15 02:11:24;;;;;;;3.87;3.47;;;16.00;99.90;;;;;;5013768;28;20166;-73
2023/09/15 02:13:50;;;;;;;4.83;4.30;;;16.00;99.90;;;;;;5012108;28;20191;-74
2023/09/15 02:16:15;;;;;;;4.90;4.40;;;16.10;99.90;;;;;;5013640;28;20606;-74
2023/09/15 02:18:41;;;;;;;5.60;4.30;;;15.90;99.90;;;;;;5012433;28;20179;-74
2023/09/15 02:21:06;;;;;;;5.33;4.30;;;15.80;99.90;;;;;;5013531;28;20569;-73
2023/09/15 02:23:32;;;;;;;4.77;4.30;;;15.80;99.90;;;;;;5013497;28;20292;-74
2023/09/15 02:26:02;;;;;;;4.23;3.60;;;15.70;99.90;;;;;;5013444;28;20174;-74
2023/09/15 02:28:28;;;;;;;4.93;4.40;;;15.70;99.90;;;;;;5013329;28;20409;-74
2023/09/15 02:30:55;;;;;;;4.50;4.10;;;15.70;99.90;;;;;;5013759;28;20400;-74
2023/09/15 02:33:22;;;;;;;4.40;4.00;;;15.70;99.90;;;;;;5013676;28;20195;-74
2023/09/15 02:35:48;;;;;;;4.30;3.90;;;15.70;99.90;;;;;;5013348;28;20399;-74
2023/09/15 02:38:14;;;;;;;5.20;4.70;;;15.70;99.90;;;;;;5013806;28;20784;-72
2023/09/15 02:40:39;;;;;;;4.60;4.20;;;15.70;99.90;;;;;;5013209;28;20397;-73
2023/09/15 02:43:05;;;;;;;4.40;4.00;;;15.70;99.90;;;;;;5013113;28;20195;-73
2023/09/15 02:45:35;;;;;;;4.73;4.33;;;15.70;99.90;;;;;;5011986;28;20173;-73
2023/09/15 02:48:00;;;;;;;6.10;4.30;;;15.70;99.90;;;;;;5013388;28;20539;-73
2023/09/15 02:50:26;;;;;;;5.13;4.63;;;15.70;99.90;;;;;;5013512;28;20499;-73
2023/09/15 02:52:51;;;;;;;6.83;4.60;;;15.60;99.90;;;;;;5013337;28;20196;-73
2023/09/15 02:55:17;;;;;;;5.20;4.70;;;15.60;99.90;;;;;;5012984;28;20175;-73
2023/09/15 02:57:43;;;;;;;5.83;4.30;;;15.60;99.90;;;;;;5013034;28;20189;-73
2023/09/15 03:00:13;;;;;;;5.80;5.07;;;15.40;99.90;;;;;;5013417;28;20250;-73
2023/09/15 03:02:40;;;;;;;6.40;4.40;;;15.40;99.90;;;;;;5013141;28;20252;-73
2023/09/15 03:05:07;;;;;;;5.10;4.60;;;15.40;99.90;;;;;;5013693;28;20465;-73
2023/09/15 03:07:33;;;;;;;6.00;4.77;;;15.40;99.90;;;;;;5011960;28;20425;-73
2023/09/15 03:09:58;;;;;;;6.03;4.60;;;15.40;99.90;;;;;;5013238;28;20406;-73
2023/09/15 03:12:24;;;;;;;4.90;4.40;;;15.40;99.90;;;;;;5012828;28;20562;-73
2023/09/15 03:14:52;;;;;;;5.03;4.53;;;15.40;99.90;;;;;;5013260;28;20175;-73
2023/09/15 03:17:18;;;;;;;6.33;4.63;;;15.40;99.90;;;;;;5013099;28;20281;-73
2023/09/15 03:19:44;;;;;;;6.63;4.00;;;15.40;99.90;;;;;;5012921;28;20959;-73
2023/09/15 03:22:10;;;;;;;6.77;5.10;;;15.30;99.90;;;;;;5013099;28;20414;-73
2023/09/15 03:24:36;;;;;;;5.73;5.13;;;15.30;99.90;;;;;;5011934;28;20397;-73
2023/09/15 03:27:02;;;;;;;6.67;5.13;;;15.30;99.90;;;;;;5012683;28;20537;-73
2023/09/15 03:29:28;;;;;;;6.30;4.60;;;15.30;99.90;;;;;;5012676;28;20480;-71
2023/09/15 03:31:54;;;;;;;5.43;4.20;;;15.30;99.90;;;;;;5012849;28;20174;-73
2023/09/15 03:34:20;;;;;;;4.50;4.10;;;15.30;99.90;;;;;;5015960;28;20200;-73
2023/09/15 03:36:46;;;;;;;5.50;4.53;;;15.30;99.90;;;;;;5016953;28;20443;-72
2023/09/15 03:39:11;;;;;;;6.83;4.43;;;15.30;99.90;;;;;;5016874;28;20215;-73
2023/09/15 03:41:37;;;;;;;5.43;4.87;;;15.30;99.90;;;;;;5015407;28;20831;-73
2023/09/15 03:44:04;;;;;;;5.17;4.67;;;15.30;99.90;;;;;;5015806;28;20186;-73
2023/09/15 03:46:30;;;;;;;7.83;5.00;;;15.30;99.90;;;;;;5016481;28;20746;-73
2023/09/15 03:48:56;;;;;;;6.60;5.10;;;15.30;99.90;;;;;;5017045;28;20414;-73
2023/09/15 03:51:22;;;;;;;4.80;4.40;;;15.30;99.90;;;;;;5016505;28;20410;-73
2023/09/15 03:53:48;;;;;;;5.20;4.20;;;15.20;99.90;;;;;;5016312;28;20220;-73
2023/09/15 03:56:13;;;;;;;5.83;5.27;;;15.20;99.90;;;;;;5014929;28;20443;-73
2023/09/15 03:58:39;;;;;;;5.00;4.60;;;15.20;99.90;;;;;;5016122;28;20528;-73
2023/09/15 04:01:08;;;;;;;5.80;5.30;;;15.10;99.90;;;;;;5016618;28;20170;-72
2023/09/15 04:03:34;;;;;;;6.07;5.47;;;15.10;99.90;;;;;;5016264;28;20549;-72
2023/09/15 04:06:00;;;;;;;6.97;5.57;;;15.20;99.90;;;;;;5016245;28;20435;-72
2023/09/15 04:08:26;;;;;;;5.83;5.23;;;15.20;99.90;;;;;;5016375;28;20176;-73
2023/09/15 04:10:51;;;;;;;6.43;5.70;;;15.20;99.90;;;;;;5016162;28;20163;-72
2023/09/15 04:13:17;;;;;;;5.67;5.03;;;15.20;99.90;;;;;;5015636;28;20197;-72
2023/09/15 04:15:42;;;;;;;5.80;5.20;;;15.20;99.90;;;;;;5016124;28;20167;-72
2023/09/15 04:18:08;;;;;;;7.87;5.50;;;15.20;99.90;;;;;;5015900;28;20245;-72
2023/09/15 04:20:34;;;;;;;8.63;5.60;;;15.20;99.90;;;;;;5016320;28;20170;-73
2023/09/15 04:23:00;;;;;;;6.07;5.47;;;15.20;99.90;;;;;;5015487;28;20204;-72
2023/09/15 04:25:25;;;;;;;7.73;5.50;;;15.10;99.90;;;;;;5016387;28;20758;-73
2023/09/15 04:27:51;;;;;;;7.67;4.87;;;15.10;99.90;;;;;;5016214;28;20489;-73
2023/09/15 04:30:16;;;;;;;6.63;6.00;;;15.10;99.90;;;;;;5016505;28;20171;-74
2023/09/15 04:32:42;;;;;;;6.20;5.60;;;15.10;99.90;;;;;;5015256;28;20613;-72
2023/09/15 04:35:12;;;;;;;6.97;5.50;;;15.10;99.90;;;;;;5016943;28;20175;-72
2023/09/15 04:37:38;;;;;;;6.83;6.13;;;15.10;99.90;;;;;;5016290;28;20191;-72
2023/09/15 04:40:06;;;;;;;6.70;5.27;;;15.00;99.90;;;;;;5014581;28;20780;-72
2023/09/15 04:42:33;;;;;;;8.93;5.63;;;15.00;99.90;;;;;;5006688;28;20683;-72
2023/09/15 04:45:00;;;;;;;5.63;5.13;;;15.00;99.90;;;;;;5006106;28;21206;-70
2023/09/15 04:47:34;;;;;;;7.27;5.50;;;15.00;99.90;;;;;;5006714;28;20422;-73
2023/09/15 04:49:59;;;;;;;7.27;5.90;;;15.00;99.90;;;;;;5006509;28;20454;-73
2023/09/15 04:52:25;;;;;;;5.63;5.13;;;14.90;99.90;;;;;;5006048;28;20481;-72
2023/09/15 04:54:52;;;;;;;6.17;5.57;;;14.80;99.90;;;;;;5006165;28;20181;-71
2023/09/15 04:57:18;;;;;;;6.97;5.60;;;14.80;99.90;;;;;;5005758;28;20218;-70
2023/09/15 04:59:46;;;;;;;6.73;5.50;;;14.80;99.90;;;;;;5004718;28;20421;-72
2023/09/15 05:02:13;;;;;;;5.93;5.20;;;14.90;99.90;;;;;;5005761;28;20425;-73
2023/09/15 05:04:39;;;;;;;6.33;5.80;;;15.00;99.90;;;;;;5004960;28;20591;-73
2023/09/15 05:07:05;;;;;;;6.30;5.67;;;15.00;99.90;;;;;;5006669;28;20425;-74
2023/09/15 05:09:31;;;;;;;8.90;5.80;;;15.00;99.90;;;;;;5006190;28;20767;-73
2023/09/15 05:11:56;;;;;;;7.20;5.60;;;15.10;99.90;;;;;;5006171;28;20812;-72
2023/09/15 05:14:22;;;;;;;11.83;7.30;;;15.10;99.90;;;;;;5004463;28;20504;-71
2023/09/15 05:16:48;;;;;;;7.10;6.50;;;15.00;99.90;;;;;;5005814;28;20241;-73
2023/09/15 05:19:14;;;;;;;10.57;7.27;;;15.00;99.90;;;;;;5005343;28;20406;-73
2023/09/15 05:21:40;;;;;;;8.03;5.37;;;14.90;99.90;;;;;;5006027;28;20434;-74
2023/09/15 05:24:06;;;;;;;83.40;17.43;;;14.90;99.90;;;;;;5005338;28;20646;-71
2023/09/15 05:26:31;;;;;;;13.50;12.10;;;14.90;99.90;;;;;;5003498;28;20597;-73
2023/09/15 05:28:57;;;;;;;7.43;6.50;;;14.80;99.90;;;;;;5005005;28;20181;-72
2023/09/15 05:31:25;;;;;;;8.97;7.20;;;14.90;99.90;;;;;;5005817;28;20359;-71
2023/09/15 05:33:53;;;;;;;16.27;15.07;;;15.10;99.90;;;;;;5005583;28;20685;-72
2023/09/15 05:36:19;;;;;;;6.80;6.10;;;15.20;99.90;;;;;;5005681;28;20491;-73
2023/09/15 05:38:46;;;;;;;14.33;13.13;;;15.40;99.90;;;;;;5005311;28;20466;-71
2023/09/15 05:41:11;;;;;;;24.17;22.17;;;15.40;99.90;;;;;;5005628;28;20211;-73
2023/09/15 05:43:37;;;;;;;17.73;16.30;;;15.50;99.90;;;;;;5005281;28;20977;-72
2023/09/15 05:46:03;;;;;;;5.83;5.33;;;15.60;99.90;;;;;;5006158;28;20178;-73
2023/09/15 05:48:28;;;;;;;17.27;15.50;;;15.70;99.90;;;;;;5003934;28;20190;-72
2023/09/15 05:50:54;;;;;;;8.00;6.93;;;15.80;99.90;;;;;;5003783;28;20227;-71
2023/09/15 05:53:19;;;;;;;7.40;5.90;;;15.80;99.90;;;;;;5004273;28;20198;-72
2023/09/15 05:55:45;;;;;;;5.83;5.20;;;15.90;99.90;;;;;;5003148;28;20489;-72
2023/09/15 05:58:10;;;;;;;6.40;5.80;;;16.00;99.90;;;;;;5004579;28;20217;-72
2023/09/15 06:00:36;;;;;;;6.40;5.63;;;16.10;99.90;;;;;;5004940;28;20344;-72
2023/09/15 06:03:02;;;;;;;5.70;5.20;;;16.10;99.90;;;;;;5008416;28;20191;-73
2023/09/15 06:05:28;;;;;;;6.80;6.20;;;16.10;99.90;;;;;;5003774;28;20179;-71
2023/09/15 06:07:54;;;;;;;6.80;6.20;;;16.10;99.90;;;;;;5004563;28;20493;-71
2023/09/15 06:10:20;;;;;;;7.57;6.80;;;16.20;99.90;;;;;;5004255;28;20206;-73
2023/09/15 06:12:50;;;;;;;8.57;6.90;;;16.20;99.90;;;;;;5004283;28;20555;-72
2023/09/15 06:15:15;;;;;;;6.80;6.10;;;16.20;99.90;;;;;;5004291;28;21019;-72
2023/09/15 06:17:41;;;;;;;6.10;5.43;;;16.20;99.90;;;;;;5004114;28;20474;-71
2023/09/15 06:20:07;;;;;;;6.83;6.20;;;16.30;99.90;;;;;;5005239;28;20190;-72
2023/09/15 06:22:33;;;;;;;6.10;5.60;;;16.30;99.90;;;;;;5005784;28;20222;-71
2023/09/15 06:24:59;;;;;;;6.63;5.50;;;16.40;99.90;;;;;;5004016;28;20240;-72
2023/09/15 06:27:25;;;;;;;6.23;5.50;;;16.40;99.90;;;;;;5005417;28;20909;-73
2023/09/15 06:29:52;;;;;;;8.70;5.50;;;16.50;99.90;;;;;;5004801;28;20242;-71
2023/09/15 06:32:18;;;;;;;8.20;6.97;;;16.50;99.90;;;;;;5005712;28;20311;-71
2023/09/15 06:34:44;;;;;;;7.40;6.30;;;16.60;99.90;;;;;;5004720;28;20427;-74
2023/09/15 06:37:10;;;;;;;9.63;6.30;;;16.70;99.90;;;;;;5004527;28;20450;-72
2023/09/15 06:39:36;;;;;;;6.67;5.07;;;16.80;99.90;;;;;;5004749;28;20476;-73
2023/09/15 06:42:04;;;;;;;6.30;5.70;;;16.90;99.90;;;;;;5004106;28;20187;-73
2023/09/15 06:44:31;;;;;;;6.47;5.77;;;16.90;99.90;;;;;;5004118;28;20415;-72
2023/09/15 06:46:56;;;;;;;6.77;6.17;;;17.00;99.90;;;;;;5004092;28;20426;-73
2023/09/15 06:49:22;;;;;;;8.07;5.80;;;17.20;99.90;;;;;;5004620;28;20738;-73
2023/09/15 06:51:50;;;;;;;7.93;6.10;;;17.20;99.90;;;;;;5004611;28;20237;-74
2023/09/15 06:54:16;;;;;;;8.03;6.13;;;17.30;99.90;;;;;;5004298;28;21419;-73
2023/09/15 06:56:41;;;;;;;6.50;4.83;;;17.40;99.90;;;;;;5004507;28;20457;-72
2023/09/15 06:59:07;;;;;;;6.80;5.93;;;17.50;99.90;;;;;;5003728;28;20536;-74
2023/09/15 07:01:32;;;;;;;9.73;7.70;;;17.60;99.90;;;;;;5004118;28;20615;-75
2023/09/15 07:03:58;;;;;;;9.63;5.63;;;17.60;99.90;;;;;;5003863;28;20206;-72
2023/09/15 07:06:23;;;;;;;9.40;6.50;;;17.60;99.90;;;;;;5003771;28;20470;-73
2023/09/15 07:08:49;;;;;;;10.27;7.77;;;17.60;99.90;;;;;;5006860;28;20502;-73
2023/09/15 07:11:15;;;;;;;8.27;7.27;;;17.70;99.90;;;;;;5007479;28;20672;-74
2023/09/15 07:13:41;;;;;;;8.00;5.93;;;17.90;99.90;;;;;;5007743;28;20612;-73
2023/09/15 07:16:06;;;;;;;10.67;7.73;;;18.00;99.90;;;;;;5009018;28;20473;-72
2023/09/15 07:18:32;;;;;;;9.70;6.60;;;18.00;99.90;;;;;;5006263;28;20207;-74
2023/09/15 07:20:58;;;;;;;7.60;6.80;;;18.00;99.90;;;;;;5008249;28;20297;-73
2023/09/15 07:23:23;;;;;;;9.00;8.10;;;17.90;99.90;;;;;;5006364;28;20628;-74
2023/09/15 07:25:49;;;;;;;8.17;6.97;;;18.00;99.90;;;;;;5007327;28;20180;-74
2023/09/15 07:28:15;;;;;;;7.73;6.93;;;18.10;99.90;;;;;;5007515;28;20229;-73
2023/09/15 07:30:41;;;;;;;8.90;7.40;;;18.10;99.90;;;;;;5007437;28;20550;-74
2023/09/15 07:33:08;;;;;;;7.70;7.00;;;17.80;99.90;;;;;;5006987;28;20547;-72
2023/09/15 07:35:35;;;;;;;9.73;7.40;;;17.70;99.90;;;;;;5007643;28;20464;-72
2023/09/15 07:38:02;;;;;;;10.87;7.67;;;17.70;99.90;;;;;;5007374;28;20439;-73
2023/09/15 07:40:28;;;;;;;9.00;7.03;;;17.90;99.90;;;;;;5006731;28;21193;-72
2023/09/15 07:42:53;;;;;;;8.33;7.53;;;17.90;99.90;;;;;;5005904;28;20446;-73
2023/09/15 07:45:19;;;;;;;10.50;8.07;;;17.90;99.90;;;;;;5007020;28;20179;-73
2023/09/15 07:47:45;;;;;;;9.70;7.40;;;17.90;99.90;;;;;;5007571;28;20214;-74
2023/09/15 07:50:10;;;;;;;10.40;8.30;;;18.00;99.90;;;;;;5007165;28;20678;-72
2023/09/15 07:52:36;;;;;;;8.70;7.90;;;18.00;99.90;;;;;;5007741;28;20750;-73
2023/09/15 07:55:02;;;;;;;10.10;8.20;;;17.90;99.90;;;;;;5007395;28;20184;-73
2023/09/15 07:57:29;;;;;;;8.43;7.63;;;17.80;99.90;;;;;;5006864;28;20435;-73
2023/09/15 07:59:54;;;;;;;12.63;8.40;;;17.70;99.90;;;;;;5007681;28;20789;-74
2023/09/15 08:02:23;;;;;;;8.50;7.67;;;17.70;99.90;;;;;;5008462;28;20434;-73
2023/09/15 08:04:49;;;;;;;11.80;7.80;;;17.90;99.90;;;;;;5007196;28;20172;-75
2023/09/15 08:07:14;;;;;;;9.30;8.27;;;18.20;99.90;;;;;;5008008;28;20422;-73
2023/09/15 08:09:40;;;;;;;10.20;7.60;;;18.10;99.90;;;;;;5007268;28;20210;-73
2023/09/15 08:12:06;;;;;;;9.77;7.80;;;18.10;99.90;;;;;;5006804;28;20266;-73
2023/09/15 08:14:31;;;;;;;8.23;7.43;;;18.10;99.90;;;;;;5006312;28;20662;-72
2023/09/15 08:16:57;;;;;;;8.90;8.00;;;18.30;99.90;;;;;;5006704;28;20496;-73
2023/09/15 08:19:23;;;;;;;8.00;7.20;;;18.50;99.90;;;;;;5004591;28;20180;-74
2023/09/15 08:21:48;;;;;;;7.83;7.03;;;18.60;99.90;;;;;;5006790;28;20188;-74
2023/09/15 08:24:14;;;;;;;9.37;8.20;;;18.70;99.90;;;;;;5006038;28;20207;-74
2023/09/15 08:26:39;;;;;;;8.97;7.70;;;18.70;99.90;;;;;;5006474;28;20184;-73
2023/09/15 08:29:05;;;;;;;12.83;8.07;;;18.70;99.90;;;;;;5004591;28;20187;-75
2023/09/15 08:31:31;;;;;;;10.87;8.13;;;18.70;99.90;;;;;;5004829;28;20190;-74
2023/09/15 08:33:57;;;;;;;8.60;7.70;;;19.00;99.90;;;;;;5006002;28;20451;-73
2023/09/15 08:36:25;;;;;;;10.30;7.53;;;19.30;99.90;;;;;;5005832;28;20453;-76
2023/09/15 08:38:50;;;;;;;8.90;8.00;;;19.20;99.90;;;;;;5004885;28;20283;-75
2023/09/15 08:41:28;;;;;;;8.37;7.10;;;19.20;99.90;;;;;;5006167;28;20510;-74
2023/09/15 08:43:55;;;;;;;10.63;7.83;;;19.30;99.90;;;;;;5005651;28;20577;-72
2023/09/15 08:46:22;;;;;;;7.70;6.90;;;19.20;99.90;;;;;;5006312;28;20419;-73
2023/09/15 08:48:51;;;;;;;8.87;7.83;;;19.40;99.90;;;;;;5004701;28;20514;-72
2023/09/15 08:51:18;;;;;;;10.23;7.47;;;19.60;99.90;;;;;;5005985;28;20415;-72
2023/09/15 08:53:46;;;;;;;8.70;6.67;;;19.20;99.90;;;;;;5005654;28;20517;-72
2023/09/15 08:56:13;;;;;;;9.87;8.30;;;19.30;99.90;;;;;;5004802;28;20612;-75
2023/09/15 08:58:38;;;;;;;8.47;7.37;;;19.50;99.90;;;;;;5006196;28;20426;-72
2023/09/15 09:01:07;;;;;;;7.03;6.33;;;19.80;99.90;;;;;;5005760;28;20415;-75
2023/09/15 09:03:35;;;;;;;10.83;8.40;;;20.00;99.90;;;;;;5005882;28;20736;-71
2023/09/15 09:06:03;;;;;;;7.10;6.40;;;20.20;99.90;;;;;;5005910;28;20442;-73
2023/09/15 09:08:29;;;;;;;7.87;7.17;;;20.30;99.90;;;;;;5005564;28;20842;-74
2023/09/15 09:10:55;;;;;;;9.00;8.00;;;20.10;99.90;;;;;;5004956;28;20933;-72
2023/09/15 09:13:22;;;;;;;8.17;7.37;;;19.90;99.90;;;;;;5005687;28;20584;-72
2023/09/15 09:15:49;;;;;;;7.70;7.00;;;20.00;99.90;;;;;;5006674;28;20178;-73
2023/09/15 09:18:16;;;;;;;9.50;7.60;;;20.20;99.90;;;;;;5007846;28;20453;-74
2023/09/15 09:20:43;;;;;;;8.20;7.40;;;20.40;99.90;;;;;;5007732;28;20785;-72
2023/09/15 09:23:09;;;;;;;8.20;7.00;;;20.40;99.90;;;;;;5006796;28;20948;-73
2023/09/15 09:25:35;;;;;;;8.23;7.43;;;20.60;99.90;;;;;;5006839;28;20458;-74
2023/09/15 09:28:03;;;;;;;9.83;7.70;;;20.50;99.90;;;;;;5006713;28;20419;-72
2023/09/15 09:30:31;;;;;;;8.63;7.50;;;20.40;99.90;;;;;;5005573;28;20929;-73
2023/09/15 09:33:00;;;;;;;9.23;7.97;;;20.50;99.90;;;;;;5006529;28;20473;-72
2023/09/15 09:35:26;;;;;;;11.83;8.03;;;20.60;99.90;;;;;;5007201;28;20777;-72
2023/09/15 09:37:56;;;;;;;8.77;6.90;;;20.90;99.90;;;;;;5007359;28;20454;-73
2023/09/15 09:40:22;;;;;;;7.63;6.90;;;20.90;99.90;;;;;;5007021;28;20176;-74
2023/09/15 09:42:49;;;;;;;9.17;7.53;;;21.00;99.90;;;;;;5007773;28;21271;-72
2023/09/15 09:45:15;;;;;;;8.63;7.80;;;21.10;99.90;;;;;;5006615;28;20415;-76
2023/09/15 09:47:42;;;;;;;7.73;7.03;;;21.30;99.90;;;;;;5008212;28;20422;-72
2023/09/15 09:50:10;;;;;;;8.13;7.33;;;21.40;99.90;;;;;;5007621;28;20429;-72
2023/09/15 09:52:36;;;;;;;8.90;8.00;;;21.50;99.90;;;;;;5007446;28;20469;-73
2023/09/15 09:55:10;;;;;;;8.20;7.40;;;21.40;99.90;;;;;;5007392;28;20411;-73
2023/09/15 09:57:39;;;;;;;8.50;7.70;;;21.10;99.90;;;;;;5005489;28;20469;-72
2023/09/15 10:00:09;;;;;;;7.73;6.93;;;21.30;99.90;;;;;;5006389;28;20411;-73
2023/09/15 10:02:36;;;;;;;7.60;6.90;;;21.60;99.90;;;;;;5005688;28;20433;-75
2023/09/15 10:05:03;;;;;;;9.03;8.07;;;21.90;99.90;;;;;;4998652;28;20494;-73
2023/09/15 10:07:29;;;;;;;7.33;6.57;;;22.00;99.90;;;;;;5007473;28;20522;-72
2023/09/15 10:09:55;;;;;;;6.90;6.30;;;22.10;99.90;;;;;;5007704;28;20927;-73
2023/09/15 10:12:23;;;;;;;7.70;7.00;;;22.40;99.90;;;;;;5006412;28;20203;-73
2023/09/15 10:14:49;;;;;;;7.03;6.40;;;22.50;99.90;;;;;;5006428;28;20722;-72
2023/09/15 10:17:16;;;;;;;7.70;6.83;;;22.60;99.90;;;;;;5007170;28;20810;-74
2023/09/15 10:19:42;;;;;;;8.93;8.00;;;22.60;99.90;;;;;;5007257;28;20411;-71
2023/09/15 10:22:10;;;;;;;7.80;6.80;;;22.60;99.90;;;;;;5007151;28;20435;-77
2023/09/15 10:24:36;;;;;;;8.73;6.93;;;22.50;99.90;;;;;;5006702;28;20885;-74
2023/09/15 10:27:03;;;;;;;11.07;8.20;;;22.60;99.90;;;;;;5005041;28;20462;-73
2023/09/15 10:29:31;;;;;;;8.13;7.33;;;22.60;99.90;;;;;;5005861;28;20180;-73
2023/09/15 10:32:02;;;;;;;9.53;7.03;;;22.80;99.90;;;;;;5005577;28;20917;-71
2023/09/15 10:34:27;;;;;;;7.97;7.17;;;23.20;99.90;;;;;;5005837;28;20423;-74
2023/09/15 10:36:53;;;;;;;7.00;6.30;;;23.40;99.90;;;;;;5005435;28;20520;-74
2023/09/15 10:39:19;;;;;;;7.90;7.10;;;23.40;99.90;;;;;;5007172;28;20215;-74
2023/09/15 10:41:45;;;;;;;8.60;7.80;;;23.40;99.90;;;;;;5006589;28;20212;-74
2023/09/15 10:44:11;;;;;;;7.60;6.90;;;23.50;99.90;;;;;;5007223;28;20203;-73
2023/09/15 10:46:40;;;;;;;7.60;6.97;;;23.80;99.90;;;;;;5006409;28;20814;-74
2023/09/15 10:49:19;;;;;;;6.87;6.27;;;24.20;99.90;;;;;;5005892;28;20414;-75
2023/09/15 10:52:00;;;;;;;8.70;6.70;;;24.80;99.90;;;;;;5005220;28;20906;-72
2023/09/15 10:54:35;;;;;;;7.80;7.10;;;25.30;99.90;;;;;;5004740;28;20437;-73
2023/09/15 10:57:02;;;;;;;8.57;7.57;;;25.20;99.90;;;;;;5003896;28;20772;-74
2023/09/15 10:59:28;;;;;;;8.00;7.20;;;25.30;99.90;;;;;;5004929;28;20836;-75
2023/09/15 11:01:54;;;;;;;8.10;6.63;;;25.60;99.90;;;;;;5004736;28;20410;-74
2023/09/15 11:04:25;;;;;;;6.87;5.37;;;26.20;99.90;;;;;;5004416;28;20200;-74
2023/09/15 11:06:52;;;;;;;6.43;5.83;;;28.20;99.90;;;;;;5007267;28;20572;-73
2023/09/15 11:09:18;;;;;;;6.17;5.57;;;28.80;98.20;;;;;;5005642;28;20702;-74
2023/09/15 11:11:51;;;;;;;7.47;5.23;;;29.10;96.90;;;;;;5005072;28;20462;-74
2023/09/15 11:14:21;;;;;;;7.03;6.30;;;29.50;96.60;;;;;;5005079;28;20443;-73
2023/09/15 11:16:55;;;;;;;6.83;6.27;;;29.10;95.80;;;;;;5005859;28;21039;-75
2023/09/15 11:19:24;;;;;;;8.37;6.03;;;29.30;95.80;;;;;;5005087;28;20403;-74
2023/09/15 11:21:50;;;;;;;7.60;4.70;;;30.70;93.60;;;;;;5005216;28;20411;-74
2023/09/15 11:24:16;;;;;;;6.07;5.47;;;31.40;92.80;;;;;;5003940;28;20481;-75
2023/09/15 11:26:45;;;;;;;5.77;5.37;;;31.30;91.70;;;;;;5005471;28;20191;-73
2023/09/15 11:29:11;;;;;;;6.63;4.90;;;30.90;91.60;;;;;;5004939;28;20526;-74
2023/09/15 11:31:37;;;;;;;9.10;5.70;;;31.10;92.00;;;;;;5006226;28;20509;-74
2023/09/15 11:34:08;;;;;;;5.33;4.83;;;31.30;90.40;;;;;;5005902;28;20207;-73
2023/09/15 11:36:35;;;;;;;4.93;4.53;;;32.00;89.20;;;;;;5005604;28;20997;-76
2023/09/15 11:39:11;;;;;;;5.97;4.57;;;32.80;86.20;;;;;;5004802;28;20411;-74
2023/09/15 11:42:05;;;;;;;5.00;4.50;;;33.50;82.80;;;;;;5005516;28;20402;-75
2023/09/15 11:44:30;;;;;;;5.47;5.07;;;33.30;80.70;;;;;;5003468;28;20508;-72
2023/09/15 11:46:58;;;;;;;4.97;4.47;;;31.30;84.30;;;;;;5004366;28;20473;-75
2023/09/15 11:49:25;;;;;;;4.57;4.13;;;32.20;83.80;;;;;;5004666;28;20402;-75
2023/09/15 11:51:54;;;;;;;4.40;4.00;;;32.00;82.30;;;;;;5005103;28;20418;-74
2023/09/15 11:54:19;;;;;;;4.60;4.17;;;33.30;81.10;;;;;;5006352;28;20494;-74
2023/09/15 11:56:46;;;;;;;5.13;4.43;;;33.80;77.30;;;;;;5007218;28;20545;-73
2023/09/15 11:59:12;;;;;;;5.50;5.00;;;32.40;78.30;;;;;;5007703;28;20176;-74
2023/09/15 12:01:40;;;;;;;5.33;4.93;;;31.60;80.50;;;;;;5010223;28;20407;-75
2023/09/15 12:04:06;;;;;;;4.50;4.10;;;32.10;79.20;;;;;;5011481;28;21066;-72
2023/09/15 12:06:32;;;;;;;4.50;4.10;;;32.60;80.30;;;;;;5011413;28;20419;-73
2023/09/15 12:08:58;;;;;;;4.80;4.40;;;33.90;75.10;;;;;;5012269;28;20717;-74
2023/09/15 12:11:24;;;;;;;6.27;4.73;;;34.60;74.50;;;;;;5011752;28;20917;-73
2023/09/15 12:13:54;;;;;;;5.90;5.40;;;32.90;75.20;;;;;;5012004;28;20431;-74
2023/09/15 12:16:31;;;;;;;5.27;4.77;;;32.60;75.60;;;;;;5012190;28;20832;-74
2023/09/15 12:18:59;;;;;;;4.07;3.77;;;31.90;77.30;;;;;;5011176;28;20917;-74
2023/09/15 12:21:26;;;;;;;9.53;4.73;;;33.10;75.10;;;;;;5011335;28;20778;-74
2023/09/15 12:23:56;;;;;;;4.90;4.50;;;32.70;75.50;;;;;;5010909;28;20829;-74
2023/09/15 12:26:25;;;;;;;5.43;4.70;;;32.60;75.10;;;;;;5010771;28;20920;-74
2023/09/15 12:28:53;;;;;;;4.90;4.50;;;32.50;75.10;;;;;;5011766;28;20781;-74
2023/09/15 12:31:20;;;;;;;4.60;3.80;;;32.80;74.70;;;;;;5011444;28;20494;-73
2023/09/15 12:33:47;;;;;;;4.13;3.73;;;32.60;75.30;;;;;;5009631;28;20427;-75
2023/09/15 12:36:13;;;;;;;5.17;4.70;;;33.00;72.20;;;;;;5012688;28;20419;-75
2023/09/15 12:38:39;;;;;;;5.17;3.77;;;33.10;72.00;;;;;;5012478;28;20407;-74
2023/09/15 12:41:05;;;;;;;5.20;4.80;;;35.20;67.90;;;;;;5010665;28;20226;-73
2023/09/15 12:43:30;;;;;;;4.90;4.50;;;35.30;65.70;;;;;;5011677;28;20454;-74
2023/09/15 12:45:56;;;;;;;3.60;3.40;;;35.60;64.90;;;;;;5011686;28;20184;-75